Spike — 9HA2419 — position and weather

sailwx.info

Track history (hours):
 
Tides and Currents Weather Stations Pressure Air Temp Water Temp Dewpoint Dewpoint Depression Visibility Wind Speed Wind Dir Waves Ship Positions

Spike

Last reported at 2018-May-12 13:02 UTC. Time now 2018-Jun-21 20:00 UTC.
Position N 28°51' W 093°54'.
Warning: this ship's position is 40 days out of date.

Length 249 m; draft 8.1 m.

Type: Ship (hazmat cat A). MMSI: 248571000.

Date/timePositionNaut miles runAvg speedWind from/ knotsBaromVisibWave heightAir tempDewpointWater temp
2018-May-12 13:02N 28°51' W 093°54'311.9
2018-May-12 12:46N 28°53' W 093°57'5411.6
2018-May-12 08:09N 29°22' W 094°48'911.3
2018-May-12 07:23N 29°30' W 094°52'411.2
2018-May-12 07:00N 29°34' W 094°55'4 7.2
2018-May-12 06:30N 29°37' W 094°57'5 9.7
2018-May-12 06:00N 29°41' W 094°59'7 0.2
2018-May-10 18:10N 29°45' W 095°06'1 3.8
2018-May-10 18:01N 29°46' W 095°05'3 6.3
2018-May-10 17:30N 29°44' W 095°02'3 6.4
2018-May-10 17:00N 29°42' W 094°60'4 7.5
2018-May-10 16:31N 29°38' W 094°58'4 8.4
2018-May-10 16:01N 29°35' W 094°56'5 9.8
2018-May-10 15:30N 29°30' W 094°53'30 8.3
2018-May-10 11:49N 29°09' W 094°27'3 7.9
2018-May-10 11:30N 29°07' W 094°29'4 8.2
2018-May-10 11:00N 29°07' W 094°34'1 0.5
2018-May-10 09:03N 29°08' W 094°35'0 0.1
2018-May-10 08:53N 29°08' W 094°35'0 0.0
2018-May-10 08:23N 29°08' W 094°35'0 0.0
2018-May-10 07:59N 29°08' W 094°35'0 0.0
2018-May-09 13:47N 29°08' W 094°35'0 0.0
2018-May-09 13:29N 29°08' W 094°35'0 0.0
2018-May-09 12:59N 29°08' W 094°35'0 0.0
2018-May-09 10:41N 29°08' W 094°35'0 0.0
2018-May-09 10:29N 29°08' W 094°35'0 0.0
2018-May-09 09:35N 29°08' W 094°35'0 0.0
2018-May-09 09:29N 29°08' W 094°35'0 0.0
2018-May-09 08:47N 29°08' W 094°35'0 0.0
2018-May-09 08:26N 29°08' W 094°35'0 0.0
2018-May-09 07:56N 29°08' W 094°35'0 0.0
2018-May-09 07:26N 29°08' W 094°35'0 0.0
2018-May-09 06:41N 29°08' W 094°35'0 0.0
2018-May-09 06:29N 29°08' W 094°35'0 0.0
2018-May-09 05:53N 29°08' W 094°35'0 0.0
2018-May-09 05:29N 29°08' W 094°35'0 0.0
2018-May-09 04:59N 29°08' W 094°35'0 0.0
2018-May-09 04:14N 29°08' W 094°35'0 0.0
2018-May-09 03:53N 29°08' W 094°35'0 0.0
2018-May-09 03:29N 29°08' W 094°35'0 0.0
2018-May-09 02:59N 29°08' W 094°35'0 0.0
2018-May-09 02:23N 29°08' W 094°35'0 0.0
2018-May-09 01:56N 29°08' W 094°35'0 0.0
2018-May-09 01:20N 29°08' W 094°35'0 0.0
2018-May-09 00:59N 29°08' W 094°35'0 0.0
2018-May-09 00:23N 29°08' W 094°35'0 0.0
2018-May-08 23:59N 29°08' W 094°35'0 0.0
2018-May-08 23:29N 29°08' W 094°35'0 0.0
2018-May-08 22:50N 29°08' W 094°35'0 0.0
2018-May-08 22:26N 29°08' W 094°35'0 0.0
2018-May-08 21:59N 29°08' W 094°35'0 0.0
2018-May-08 21:29N 29°08' W 094°35'0 0.0
2018-May-08 20:53N 29°08' W 094°35'0 0.0
2018-May-08 19:56N 29°08' W 094°35'0 0.0
2018-May-08 19:26N 29°08' W 094°35'0 0.0
2018-May-08 18:26N 29°08' W 094°35'0 0.0
2018-May-08 17:59N 29°08' W 094°35'0 0.0
2018-May-08 17:26N 29°08' W 094°35'0 0.0
2018-May-08 16:47N 29°08' W 094°35'0 0.0
2018-May-08 16:29N 29°08' W 094°35'0 0.0
2018-May-08 15:38N 29°08' W 094°35'0 0.0
2018-May-08 15:23N 29°08' W 094°35'0 0.0
2018-May-08 13:44N 29°08' W 094°35'0 0.0
2018-May-08 13:29N 29°08' W 094°35'0 0.0
2018-May-08 12:59N 29°08' W 094°35'0 0.0
2018-May-08 12:29N 29°08' W 094°35'0 0.0
2018-May-08 11:41N 29°08' W 094°35'0 0.0
2018-May-08 11:29N 29°08' W 094°35'0 0.0
2018-May-08 10:44N 29°08' W 094°35'0 0.0
2018-May-08 10:29N 29°08' W 094°35'0 0.0
2018-May-08 09:56N 29°08' W 094°35'0 0.0
2018-May-08 09:23N 29°08' W 094°35'0 0.0
2018-May-08 08:56N 29°08' W 094°35'0 0.0
2018-May-08 08:23N 29°08' W 094°35'0 0.0
2018-May-08 07:59N 29°08' W 094°35'0 0.0
2018-May-08 07:17N 29°08' W 094°35'0 0.0
2018-May-08 06:59N 29°08' W 094°35'0 0.0
2018-May-08 06:29N 29°08' W 094°35'0 0.0
2018-May-08 05:59N 29°08' W 094°35'0 0.0
2018-May-08 05:26N 29°08' W 094°35'0 0.0
2018-May-08 04:59N 29°08' W 094°35'0 0.0
2018-May-08 04:29N 29°08' W 094°35'0 0.0
2018-May-08 03:53N 29°08' W 094°35'0 0.0
2018-May-08 03:29N 29°08' W 094°35'0 0.0
2018-May-08 02:59N 29°08' W 094°35'0 0.0
2018-May-08 02:29N 29°08' W 094°35'0 0.0
2018-May-08 01:56N 29°08' W 094°35'0 0.0
2018-May-08 01:29N 29°08' W 094°35'0 0.0
2018-May-08 00:59N 29°08' W 094°35'0 0.0
2018-May-08 00:29N 29°08' W 094°35'0 0.0
2018-May-07 23:56N 29°08' W 094°35'0 0.1
2018-May-07 22:38N 29°08' W 094°35'0 0.1
2018-May-07 22:26N 29°08' W 094°35'0 0.1
2018-May-07 21:59N 29°08' W 094°35'0 0.0
2018-May-07 21:26N 29°08' W 094°35'0 0.0
2018-May-07 20:59N 29°08' W 094°35'0 0.0
2018-May-07 20:29N 29°08' W 094°35'0 0.0
2018-May-07 19:59N 29°08' W 094°35'0 0.0
2018-May-07 19:29N 29°08' W 094°35'0 0.0
2018-May-07 18:56N 29°08' W 094°35'0 0.0
2018-May-07 13:56N 29°08' W 094°35'0 0.0
2018-May-07 13:29N 29°08' W 094°35'0 0.0
2018-May-07 12:32N 29°08' W 094°35'0 0.0
2018-May-07 12:29N 29°08' W 094°35'0 0.0
2018-May-07 10:14N 29°08' W 094°35'0 0.0
2018-May-07 09:44N 29°08' W 094°35'0 0.0
2018-May-07 09:29N 29°08' W 094°35'0 0.0
2018-May-07 08:26N 29°08' W 094°35'0 0.0
2018-May-07 07:11N 29°08' W 094°35'0 0.1
2018-May-07 06:53N 29°08' W 094°35'0 0.0
2018-May-07 05:05N 29°08' W 094°35'0 0.1
2018-May-07 04:59N 29°08' W 094°35'0 0.0
2018-May-07 04:29N 29°08' W 094°35'0 0.0
2018-May-07 03:14N 29°08' W 094°35'0 0.1
2018-May-07 02:53N 29°08' W 094°35'0 0.0
2018-May-07 02:14N 29°08' W 094°35'0 0.0
2018-May-07 01:59N 29°08' W 094°35'7 0.5
2018-May-06 10:17N 29°01' W 094°31'  
Track history (hours):
 
Tides and Currents Weather Stations Pressure Air Temp Water Temp Dewpoint Dewpoint Depression Visibility Wind Speed Wind Dir Waves Ship Positions

Spike

Last reported at 2018-May-12 13:02 UTC. Time now 2018-Jun-21 20:00 UTC.
Position N 28°51' W 093°54'.
Warning: this ship's position is 40 days out of date.

Length 249 m; draft 8.1 m.

Type: Ship (hazmat cat A). MMSI: 248571000.

Date/timePositionNaut miles runAvg speedWind from/ knotsBaromVisibWave heightAir tempDewpointWater temp
2018-May-12 13:02N 28°51' W 093°54'311.9
2018-May-12 12:46N 28°53' W 093°57'5411.6
2018-May-12 08:09N 29°22' W 094°48'911.3
2018-May-12 07:23N 29°30' W 094°52'411.2
2018-May-12 07:00N 29°34' W 094°55'4 7.2
2018-May-12 06:30N 29°37' W 094°57'5 9.7
2018-May-12 06:00N 29°41' W 094°59'7 0.2
2018-May-10 18:10N 29°45' W 095°06'1 3.8
2018-May-10 18:01N 29°46' W 095°05'3 6.3
2018-May-10 17:30N 29°44' W 095°02'3 6.4
2018-May-10 17:00N 29°42' W 094°60'4 7.5
2018-May-10 16:31N 29°38' W 094°58'4 8.4
2018-May-10 16:01N 29°35' W 094°56'5 9.8
2018-May-10 15:30N 29°30' W 094°53'30 8.3
2018-May-10 11:49N 29°09' W 094°27'3 7.9
2018-May-10 11:30N 29°07' W 094°29'4 8.2
2018-May-10 11:00N 29°07' W 094°34'1 0.5
2018-May-10 09:03N 29°08' W 094°35'0 0.1
2018-May-10 08:53N 29°08' W 094°35'0 0.0
2018-May-10 08:23N 29°08' W 094°35'0 0.0
2018-May-10 07:59N 29°08' W 094°35'0 0.0
2018-May-09 13:47N 29°08' W 094°35'0 0.0
2018-May-09 13:29N 29°08' W 094°35'0 0.0
2018-May-09 12:59N 29°08' W 094°35'0 0.0
2018-May-09 10:41N 29°08' W 094°35'0 0.0
2018-May-09 10:29N 29°08' W 094°35'0 0.0
2018-May-09 09:35N 29°08' W 094°35'0 0.0
2018-May-09 09:29N 29°08' W 094°35'0 0.0
2018-May-09 08:47N 29°08' W 094°35'0 0.0
2018-May-09 08:26N 29°08' W 094°35'0 0.0
2018-May-09 07:56N 29°08' W 094°35'0 0.0
2018-May-09 07:26N 29°08' W 094°35'0 0.0
2018-May-09 06:41N 29°08' W 094°35'0 0.0
2018-May-09 06:29N 29°08' W 094°35'0 0.0
2018-May-09 05:53N 29°08' W 094°35'0 0.0
2018-May-09 05:29N 29°08' W 094°35'0 0.0
2018-May-09 04:59N 29°08' W 094°35'0 0.0
2018-May-09 04:14N 29°08' W 094°35'0 0.0
2018-May-09 03:53N 29°08' W 094°35'0 0.0
2018-May-09 03:29N 29°08' W 094°35'0 0.0
2018-May-09 02:59N 29°08' W 094°35'0 0.0
2018-May-09 02:23N 29°08' W 094°35'0 0.0
2018-May-09 01:56N 29°08' W 094°35'0 0.0
2018-May-09 01:20N 29°08' W 094°35'0 0.0
2018-May-09 00:59N 29°08' W 094°35'0 0.0
2018-May-09 00:23N 29°08' W 094°35'0 0.0
2018-May-08 23:59N 29°08' W 094°35'0 0.0
2018-May-08 23:29N 29°08' W 094°35'0 0.0
2018-May-08 22:50N 29°08' W 094°35'0 0.0
2018-May-08 22:26N 29°08' W 094°35'0 0.0
2018-May-08 21:59N 29°08' W 094°35'0 0.0
2018-May-08 21:29N 29°08' W 094°35'0 0.0
2018-May-08 20:53N 29°08' W 094°35'0 0.0
2018-May-08 19:56N 29°08' W 094°35'0 0.0
2018-May-08 19:26N 29°08' W 094°35'0 0.0
2018-May-08 18:26N 29°08' W 094°35'0 0.0
2018-May-08 17:59N 29°08' W 094°35'0 0.0
2018-May-08 17:26N 29°08' W 094°35'0 0.0
2018-May-08 16:47N 29°08' W 094°35'0 0.0
2018-May-08 16:29N 29°08' W 094°35'0 0.0
2018-May-08 15:38N 29°08' W 094°35'0 0.0
2018-May-08 15:23N 29°08' W 094°35'0 0.0
2018-May-08 13:44N 29°08' W 094°35'0 0.0
2018-May-08 13:29N 29°08' W 094°35'0 0.0
2018-May-08 12:59N 29°08' W 094°35'0 0.0
2018-May-08 12:29N 29°08' W 094°35'0 0.0
2018-May-08 11:41N 29°08' W 094°35'0 0.0
2018-May-08 11:29N 29°08' W 094°35'0 0.0
2018-May-08 10:44N 29°08' W 094°35'0 0.0
2018-May-08 10:29N 29°08' W 094°35'0 0.0
2018-May-08 09:56N 29°08' W 094°35'0 0.0
2018-May-08 09:23N 29°08' W 094°35'0 0.0
2018-May-08 08:56N 29°08' W 094°35'0 0.0
2018-May-08 08:23N 29°08' W 094°35'0 0.0
2018-May-08 07:59N 29°08' W 094°35'0 0.0
2018-May-08 07:17N 29°08' W 094°35'0 0.0
2018-May-08 06:59N 29°08' W 094°35'0 0.0
2018-May-08 06:29N 29°08' W 094°35'0 0.0
2018-May-08 05:59N 29°08' W 094°35'0 0.0
2018-May-08 05:26N 29°08' W 094°35'0 0.0
2018-May-08 04:59N 29°08' W 094°35'0 0.0
2018-May-08 04:29N 29°08' W 094°35'0 0.0
2018-May-08 03:53N 29°08' W 094°35'0 0.0
2018-May-08 03:29N 29°08' W 094°35'0 0.0
2018-May-08 02:59N 29°08' W 094°35'0 0.0
2018-May-08 02:29N 29°08' W 094°35'0 0.0
2018-May-08 01:56N 29°08' W 094°35'0 0.0
2018-May-08 01:29N 29°08' W 094°35'0 0.0
2018-May-08 00:59N 29°08' W 094°35'0 0.0
2018-May-08 00:29N 29°08' W 094°35'0 0.0
2018-May-07 23:56N 29°08' W 094°35'0 0.1
2018-May-07 22:38N 29°08' W 094°35'0 0.1
2018-May-07 22:26N 29°08' W 094°35'0 0.1
2018-May-07 21:59N 29°08' W 094°35'0 0.0
2018-May-07 21:26N 29°08' W 094°35'0 0.0
2018-May-07 20:59N 29°08' W 094°35'0 0.0
2018-May-07 20:29N 29°08' W 094°35'0 0.0
2018-May-07 19:59N 29°08' W 094°35'0 0.0
2018-May-07 19:29N 29°08' W 094°35'0 0.0
2018-May-07 18:56N 29°08' W 094°35'0 0.0
2018-May-07 13:56N 29°08' W 094°35'0 0.0
2018-May-07 13:29N 29°08' W 094°35'0 0.0
2018-May-07 12:32N 29°08' W 094°35'0 0.0
2018-May-07 12:29N 29°08' W 094°35'0 0.0
2018-May-07 10:14N 29°08' W 094°35'0 0.0
2018-May-07 09:44N 29°08' W 094°35'0 0.0
2018-May-07 09:29N 29°08' W 094°35'0 0.0
2018-May-07 08:26N 29°08' W 094°35'0 0.0
2018-May-07 07:11N 29°08' W 094°35'0 0.1
2018-May-07 06:53N 29°08' W 094°35'0 0.0
2018-May-07 05:05N 29°08' W 094°35'0 0.1
2018-May-07 04:59N 29°08' W 094°35'0 0.0
2018-May-07 04:29N 29°08' W 094°35'0 0.0
2018-May-07 03:14N 29°08' W 094°35'0 0.1
2018-May-07 02:53N 29°08' W 094°35'0 0.0
2018-May-07 02:14N 29°08' W 094°35'0 0.0
2018-May-07 01:59N 29°08' W 094°35'7 0.5
2018-May-06 10:17N 29°01' W 094°31'  

Dump ship's entire track history